Time;durP1;ratioP1;P1;durP2;ratioP2;P2;SDS_P1;SDS_P2;PMS_P1;PMS_P2;Temp;Humidity;BMP_temperature;BMP_pressure;BME280_temperature;BME280_humidity;BME280_pressure;Samples;Min_cycle;Max_cycle;Signal;HPM_P1;HPM_P2
2022/08/30 00:03:05;;;;;;;11.73;4.78;;;19.60;99.90;;;;;;5050136;28;20029;-86
2022/08/30 00:05:31;;;;;;;17.35;5.20;;;19.50;99.90;;;;;;5050546;28;20067;-85
2022/08/30 00:07:58;;;;;;;11.13;4.72;;;19.50;99.90;;;;;;5053693;28;20009;-83
2022/08/30 00:10:25;;;;;;;15.00;4.95;;;19.60;99.90;;;;;;5036178;28;20081;-85
2022/08/30 00:12:51;;;;;;;7.57;4.10;;;19.60;99.90;;;;;;5053122;28;20063;-85
2022/08/30 00:15:18;;;;;;;8.57;4.78;;;19.60;99.90;;;;;;5053408;28;20030;-85
2022/08/30 00:17:44;;;;;;;12.85;5.22;;;19.50;99.90;;;;;;5053163;28;20033;-83
2022/08/30 00:20:16;;;;;;;9.52;4.80;;;19.50;99.90;;;;;;5052397;28;20097;-85
2022/08/30 00:22:43;;;;;;;7.93;4.45;;;19.50;99.90;;;;;;5051331;28;20034;-85
2022/08/30 00:25:11;;;;;;;10.10;5.15;;;19.50;99.90;;;;;;5055407;28;20036;-85
2022/08/30 00:27:37;;;;;;;11.75;4.75;;;19.40;99.90;;;;;;5055912;28;20080;-83
2022/08/30 00:30:04;;;;;;;7.88;4.82;;;19.40;99.90;;;;;;5055859;28;20044;-83
2022/08/30 00:32:30;;;;;;;11.70;5.68;;;19.40;99.90;;;;;;5042495;28;20040;-82
2022/08/30 00:34:56;;;;;;;11.27;5.75;;;19.40;99.90;;;;;;5060854;28;20026;-82
2022/08/30 00:37:22;;;;;;;15.75;5.30;;;19.40;99.90;;;;;;5060986;28;20046;-82
2022/08/30 00:39:49;;;;;;;15.15;5.63;;;19.40;99.90;;;;;;5060798;28;20025;-82
2022/08/30 00:42:16;;;;;;;11.85;5.38;;;19.30;99.90;;;;;;5061198;28;20136;-81
2022/08/30 00:44:42;;;;;;;11.93;5.25;;;19.30;99.90;;;;;;5042682;28;20040;-83
2022/08/30 00:47:08;;;;;;;13.25;4.88;;;19.20;99.90;;;;;;5060207;28;20014;-83
2022/08/30 00:49:36;;;;;;;11.90;5.15;;;19.20;99.90;;;;;;5059832;28;20093;-82
2022/08/30 00:52:04;;;;;;;15.88;5.53;;;19.20;99.90;;;;;;5060299;28;20052;-83
2022/08/30 00:54:31;;;;;;;12.90;5.53;;;19.10;99.90;;;;;;5060482;28;20013;-82
2022/08/30 00:56:58;;;;;;;9.48;5.32;;;19.20;99.90;;;;;;5060276;28;20048;-84
2022/08/30 00:59:25;;;;;;;10.02;4.97;;;19.20;99.90;;;;;;5042508;28;20081;-81
2022/08/30 01:01:51;;;;;;;8.70;4.95;;;19.20;99.90;;;;;;5042436;28;20017;-84
2022/08/30 01:04:20;;;;;;;11.48;5.43;;;19.20;99.90;;;;;;5057759;28;20540;-85
2022/08/30 01:06:46;;;;;;;8.18;5.38;;;19.10;99.90;;;;;;5056567;28;20033;-84
2022/08/30 01:09:13;;;;;;;12.18;5.22;;;19.10;99.90;;;;;;5039279;28;20018;-83
2022/08/30 01:11:41;;;;;;;13.15;5.43;;;19.10;99.90;;;;;;5056827;28;20057;-87
2022/08/30 01:14:10;;;;;;;17.00;5.97;;;19.00;99.90;;;;;;5056021;28;20028;-84
2022/08/30 01:16:37;;;;;;;15.20;5.82;;;19.00;99.90;;;;;;5059164;28;20022;-85
2022/08/30 01:19:07;;;;;;;9.05;5.57;;;19.00;99.90;;;;;;5059776;28;20041;-82
2022/08/30 01:21:48;;;;;;;11.30;5.53;;;19.00;99.90;;;;;;5059985;28;20051;-82
2022/08/30 01:24:16;;;;;;;18.42;5.60;;;19.00;99.90;;;;;;5060027;28;20025;-82
2022/08/30 01:26:42;;;;;;;12.35;5.63;;;19.00;99.90;;;;;;5055650;28;20040;-86
2022/08/30 01:29:20;;;;;;;10.15;5.55;;;19.00;99.90;;;;;;5050842;28;20021;-86
2022/08/30 01:31:46;;;;;;;11.90;6.03;;;18.90;99.90;;;;;;5049867;28;20060;-84
2022/08/30 01:34:12;;;;;;;15.27;5.45;;;19.00;99.90;;;;;;5050028;28;20089;-82
2022/08/30 01:36:41;;;;;;;12.02;5.70;;;19.00;99.90;;;;;;5030995;28;20064;-86
2022/08/30 01:39:10;;;;;;;11.77;5.18;;;18.90;99.90;;;;;;5048468;28;20045;-86
2022/08/30 01:41:36;;;;;;;7.45;4.75;;;18.90;99.90;;;;;;5032351;28;20021;-85
2022/08/30 01:44:05;;;;;;;12.60;5.88;;;18.90;99.90;;;;;;5035618;28;20024;-85
2022/08/30 01:46:35;;;;;;;15.95;6.10;;;18.80;99.90;;;;;;5049535;28;20025;-86
2022/08/30 01:49:04;;;;;;;11.57;5.70;;;18.90;99.90;;;;;;5049264;28;20037;-85
2022/08/30 01:51:30;;;;;;;12.07;5.93;;;18.80;99.90;;;;;;5051983;28;20116;-85
2022/08/30 01:53:57;;;;;;;10.18;5.57;;;18.90;99.90;;;;;;5050102;28;20044;-85
2022/08/30 01:56:25;;;;;;;10.80;5.72;;;18.80;99.90;;;;;;5051304;28;20034;-85
2022/08/30 01:58:52;;;;;;;10.48;5.78;;;18.80;99.90;;;;;;5055725;28;20086;-83
2022/08/30 02:01:20;;;;;;;13.55;6.32;;;18.70;99.90;;;;;;5057621;28;20014;-83
2022/08/30 02:03:47;;;;;;;15.25;6.13;;;18.70;99.90;;;;;;5056566;28;20025;-85
2022/08/30 02:06:15;;;;;;;11.32;5.53;;;18.60;99.90;;;;;;5038824;28;20033;-83
2022/08/30 02:08:42;;;;;;;12.48;6.00;;;18.60;99.90;;;;;;5056256;28;20029;-84
2022/08/30 02:11:10;;;;;;;12.20;5.60;;;18.60;99.90;;;;;;5039309;28;20046;-85
2022/08/30 02:13:38;;;;;;;10.63;5.30;;;18.60;99.90;;;;;;5039802;28;20033;-84
2022/08/30 02:16:09;;;;;;;12.60;5.53;;;18.60;99.90;;;;;;5053651;28;20128;-86
2022/08/30 02:18:37;;;;;;;10.30;5.80;;;18.60;99.90;;;;;;5035712;28;20037;-85
2022/08/30 02:21:03;;;;;;;10.40;4.90;;;18.70;99.90;;;;;;5106359;22;20057;-78
2022/08/30 02:23:29;;;;;;;13.52;5.57;;;18.70;99.90;;;;;;5026027;28;20129;-78
2022/08/30 02:25:56;;;;;;;11.90;6.07;;;18.80;99.90;;;;;;5022738;28;20363;-78
2022/08/30 02:28:22;;;;;;;13.65;6.05;;;18.90;99.90;;;;;;5016648;28;20556;-77
2022/08/30 02:30:48;;;;;;;11.18;5.60;;;18.90;99.90;;;;;;4999916;28;20026;-79
2022/08/30 02:33:14;;;;;;;12.07;5.32;;;18.90;99.90;;;;;;5018142;28;20033;-79
2022/08/30 02:35:40;;;;;;;13.75;5.53;;;18.90;99.90;;;;;;5017745;28;20026;-78
2022/08/30 02:38:06;;;;;;;14.60;6.57;;;18.70;99.90;;;;;;5016186;28;20029;-77
2022/08/30 02:40:32;;;;;;;9.63;5.30;;;18.70;99.90;;;;;;5016328;28;20026;-77
2022/08/30 02:42:58;;;;;;;15.25;5.28;;;18.70;99.90;;;;;;5016871;28;20049;-79
2022/08/30 02:45:24;;;;;;;13.23;5.10;;;18.70;99.90;;;;;;5018045;28;20026;-79
2022/08/30 02:47:51;;;;;;;15.38;5.63;;;18.60;99.90;;;;;;5022850;28;20033;-78
2022/08/30 02:50:17;;;;;;;13.20;5.55;;;18.50;99.90;;;;;;5019547;28;20026;-78
2022/08/30 02:52:43;;;;;;;15.40;6.35;;;18.40;99.90;;;;;;5016829;28;20061;-79
2022/08/30 02:55:10;;;;;;;13.30;5.80;;;18.30;99.90;;;;;;5018712;28;20021;-79
2022/08/30 02:57:36;;;;;;;9.27;5.78;;;18.20;99.90;;;;;;5001031;28;20280;-78
2022/08/30 03:00:07;;;;;;;16.13;6.45;;;18.10;99.90;;;;;;4997624;28;20030;-80
2022/08/30 03:02:33;;;;;;;16.35;6.50;;;18.00;99.90;;;;;;5017966;28;20034;-77
2022/08/30 03:04:58;;;;;;;21.73;6.57;;;18.00;99.90;;;;;;5017642;28;20032;-78
2022/08/30 03:07:24;;;;;;;12.85;6.05;;;17.90;99.90;;;;;;5017699;28;20437;-78
2022/08/30 03:09:51;;;;;;;18.73;7.95;;;17.90;99.90;;;;;;4998471;28;20482;-78
2022/08/30 03:12:18;;;;;;;9.38;6.60;;;17.90;99.90;;;;;;4999132;28;20113;-80
2022/08/30 03:14:43;;;;;;;17.52;6.63;;;17.90;99.90;;;;;;5000060;28;20072;-76
2022/08/30 03:17:10;;;;;;;10.88;6.68;;;17.90;99.90;;;;;;4999925;28;20025;-79
2022/08/30 03:19:36;;;;;;;11.52;7.03;;;17.80;99.90;;;;;;5015584;28;20105;-78
2022/08/30 03:22:06;;;;;;;13.43;6.60;;;17.80;99.90;;;;;;5015476;28;20037;-78
2022/08/30 03:24:32;;;;;;;14.10;7.43;;;17.80;99.90;;;;;;4998089;28;20513;-78
2022/08/30 03:26:58;;;;;;;14.50;7.03;;;17.70;99.90;;;;;;4997477;28;20125;-79
2022/08/30 03:29:24;;;;;;;14.80;7.88;;;17.70;99.90;;;;;;5014996;28;20084;-77
2022/08/30 03:31:51;;;;;;;16.45;7.68;;;17.70;99.90;;;;;;4997930;28;20026;-79
2022/08/30 03:34:17;;;;;;;15.45;7.25;;;17.70;99.90;;;;;;5016342;28;20486;-79
2022/08/30 03:36:43;;;;;;;16.13;8.15;;;17.70;99.90;;;;;;5019497;28;20041;-78
2022/08/30 03:39:10;;;;;;;13.57;7.45;;;17.70;99.90;;;;;;5017210;28;20025;-79
2022/08/30 03:41:36;;;;;;;18.98;7.25;;;17.70;99.90;;;;;;5004388;28;20033;-77
2022/08/30 03:44:02;;;;;;;19.27;7.65;;;17.80;99.90;;;;;;5021547;28;20393;-80
2022/08/30 03:46:28;;;;;;;14.48;7.28;;;18.00;99.90;;;;;;5016235;28;20219;-79
2022/08/30 03:48:54;;;;;;;15.15;7.25;;;18.10;99.90;;;;;;5015989;28;20029;-79
2022/08/30 03:51:21;;;;;;;21.40;7.78;;;18.20;99.90;;;;;;4981832;28;20068;-80
2022/08/30 03:53:47;;;;;;;15.82;7.05;;;18.20;99.90;;;;;;5003792;28;20032;-77
2022/08/30 03:56:14;;;;;;;13.98;7.32;;;18.10;99.90;;;;;;5023931;28;20022;-78
2022/08/30 03:58:40;;;;;;;15.45;7.40;;;18.10;99.90;;;;;;5017136;28;20496;-78
2022/08/30 04:01:06;;;;;;;13.27;7.60;;;18.20;99.90;;;;;;5014671;28;20116;-78
2022/08/30 04:03:32;;;;;;;10.52;6.85;;;18.10;99.90;;;;;;5024903;28;20057;-78
2022/08/30 04:05:59;;;;;;;13.32;6.57;;;18.30;99.90;;;;;;5010904;28;20029;-80
2022/08/30 04:08:26;;;;;;;14.75;7.25;;;18.40;99.90;;;;;;5012898;28;20133;-79
2022/08/30 04:10:53;;;;;;;19.10;8.02;;;18.50;99.90;;;;;;5018858;28;20108;-79
2022/08/30 04:13:20;;;;;;;15.93;6.93;;;18.70;99.90;;;;;;5001902;28;20061;-80
2022/08/30 04:15:46;;;;;;;15.60;7.85;;;18.60;99.90;;;;;;5021185;28;20021;-77
2022/08/30 04:18:12;;;;;;;17.17;7.53;;;18.60;99.90;;;;;;5026191;28;20405;-82
2022/08/30 04:20:38;;;;;;;14.50;7.38;;;18.60;99.90;;;;;;5023486;28;20037;-77
2022/08/30 04:23:06;;;;;;;17.05;7.15;;;18.60;99.90;;;;;;5002271;28;20080;-79
2022/08/30 04:25:33;;;;;;;14.13;6.93;;;18.50;99.90;;;;;;5019406;28;20088;-80
2022/08/30 04:28:00;;;;;;;13.93;7.63;;;18.50;99.90;;;;;;5009912;28;20466;-79
2022/08/30 04:30:26;;;;;;;19.20;7.53;;;18.50;99.90;;;;;;5019582;28;20026;-77
2022/08/30 04:32:52;;;;;;;15.45;7.15;;;18.50;99.90;;;;;;5019359;28;20025;-80
2022/08/30 04:35:18;;;;;;;16.40;7.72;;;18.50;99.90;;;;;;5008579;28;20108;-79
2022/08/30 04:37:44;;;;;;;18.00;7.75;;;18.50;99.90;;;;;;5000889;28;20034;-80
2022/08/30 04:40:10;;;;;;;13.98;7.50;;;18.50;99.90;;;;;;5018094;28;20021;-79
2022/08/30 04:42:38;;;;;;;14.48;7.38;;;18.50;99.90;;;;;;5022582;28;20037;-79
2022/08/30 04:45:07;;;;;;;12.25;7.15;;;18.50;99.90;;;;;;5008498;28;20445;-78
2022/08/30 04:47:33;;;;;;;13.85;8.13;;;18.50;99.90;;;;;;5021132;28;20021;-78
2022/08/30 04:49:59;;;;;;;17.67;7.47;;;18.50;99.90;;;;;;5000467;28;20532;-79
2022/08/30 04:52:25;;;;;;;20.00;7.05;;;18.50;99.90;;;;;;5018311;28;20033;-79
2022/08/30 04:54:55;;;;;;;15.10;7.53;;;18.60;99.90;;;;;;5018755;28;20022;-81
2022/08/30 04:57:22;;;;;;;16.42;7.38;;;18.60;99.90;;;;;;5008812;28;20049;-78
2022/08/30 04:59:48;;;;;;;15.32;6.80;;;18.70;99.90;;;;;;5028177;28;20190;-79
2022/08/30 05:02:14;;;;;;;21.25;6.88;;;18.70;99.90;;;;;;5028182;28;20093;-79
2022/08/30 05:05:38;;;;;;;16.20;7.00;;;18.70;99.90;;;;;;5028736;28;20083;-78
2022/08/30 05:07:26;;;;;;;20.48;7.53;;;18.70;99.90;;;;;;5005183;28;20033;-79
2022/08/30 05:09:51;;;;;;;12.77;6.65;;;18.70;99.90;;;;;;4985659;28;20096;-79
2022/08/30 05:12:17;;;;;;;14.20;6.95;;;18.70;99.90;;;;;;5018949;28;20040;-79
2022/08/30 05:14:43;;;;;;;20.30;7.40;;;18.70;99.90;;;;;;4985919;28;20116;-81
2022/08/30 05:17:09;;;;;;;10.75;6.38;;;18.60;99.90;;;;;;5019417;28;20042;-79
2022/08/30 05:19:34;;;;;;;12.35;7.10;;;18.70;99.90;;;;;;5005859;28;20092;-78
2022/08/30 05:22:00;;;;;;;16.02;7.65;;;18.70;99.90;;;;;;5028065;28;20076;-80
2022/08/30 05:24:26;;;;;;;15.90;6.57;;;18.70;99.90;;;;;;5026977;28;20041;-79
2022/08/30 05:26:52;;;;;;;21.00;7.07;;;18.70;99.90;;;;;;5009434;28;20026;-80
2022/08/30 05:29:18;;;;;;;18.60;7.15;;;18.80;99.90;;;;;;5008113;28;20119;-78
2022/08/30 05:31:43;;;;;;;12.20;7.68;;;18.80;99.90;;;;;;5025466;28;20040;-78
2022/08/30 05:34:10;;;;;;;11.60;6.75;;;18.80;99.90;;;;;;5026933;28;20124;-79
2022/08/30 05:36:37;;;;;;;13.30;6.47;;;18.90;99.90;;;;;;5008718;28;20037;-79
2022/08/30 05:39:07;;;;;;;20.02;6.72;;;19.10;99.90;;;;;;5006348;28;20482;-79
2022/08/30 05:41:33;;;;;;;16.88;7.75;;;19.10;99.90;;;;;;5023405;28;20026;-77
2022/08/30 05:44:00;;;;;;;15.00;6.32;;;19.30;99.90;;;;;;5025693;28;20061;-77
2022/08/30 05:46:31;;;;;;;15.52;6.57;;;19.40;99.90;;;;;;5025044;28;20036;-79
2022/08/30 05:49:00;;;;;;;14.98;7.28;;;19.50;99.90;;;;;;5005516;28;20065;-79
2022/08/30 05:51:27;;;;;;;12.25;7.20;;;19.60;99.90;;;;;;5005933;28;20029;-80
2022/08/30 05:53:55;;;;;;;10.93;6.10;;;19.70;99.90;;;;;;5024573;28;20199;-79
2022/08/30 05:56:24;;;;;;;10.90;6.30;;;19.80;99.90;;;;;;5012266;28;20050;-81
2022/08/30 05:58:50;;;;;;;14.40;6.60;;;19.80;99.90;;;;;;4990619;28;20559;-79
2022/08/30 06:01:24;;;;;;;12.63;5.70;;;19.90;99.90;;;;;;5013089;28;20025;-79
2022/08/30 06:03:51;;;;;;;12.32;5.78;;;20.00;99.90;;;;;;5020345;28;20117;-79
2022/08/30 06:06:17;;;;;;;16.17;5.80;;;20.00;99.90;;;;;;5021290;28;20450;-79
2022/08/30 06:08:47;;;;;;;12.85;5.72;;;20.20;99.90;;;;;;5002692;28;20096;-79
2022/08/30 06:11:14;;;;;;;18.48;5.38;;;20.30;99.90;;;;;;5002345;28;20474;-80
2022/08/30 06:13:40;;;;;;;17.92;5.25;;;20.40;99.90;;;;;;5022967;28;20057;-79
2022/08/30 06:16:07;;;;;;;13.52;5.25;;;20.60;99.90;;;;;;5024444;28;20074;-79
2022/08/30 06:18:32;;;;;;;12.60;5.53;;;20.70;99.90;;;;;;5005002;28;20034;-79
2022/08/30 06:20:58;;;;;;;10.40;5.38;;;20.80;99.90;;;;;;5021353;28;20034;-82
2022/08/30 06:23:27;;;;;;;12.38;5.07;;;20.90;99.90;;;;;;4988047;28;20042;-79
2022/08/30 06:25:53;;;;;;;13.95;6.07;;;21.00;99.90;;;;;;5020608;28;20022;-79
2022/08/30 06:28:20;;;;;;;20.00;8.52;;;21.10;99.90;;;;;;5018468;28;20030;-78
2022/08/30 06:30:46;;;;;;;15.60;5.47;;;21.10;99.90;;;;;;5018816;28;20033;-78
2022/08/30 06:33:12;;;;;;;10.25;5.20;;;21.20;99.90;;;;;;5018805;28;20541;-81
2022/08/30 06:35:38;;;;;;;10.55;4.65;;;21.20;99.90;;;;;;5019059;28;20060;-78
2022/08/30 06:38:04;;;;;;;12.13;4.95;;;21.30;99.90;;;;;;4998853;28;20042;-80
2022/08/30 06:40:30;;;;;;;9.82;5.15;;;21.40;99.90;;;;;;5000606;28;20864;-80
2022/08/30 06:42:56;;;;;;;11.18;5.25;;;21.50;99.90;;;;;;5017622;28;20038;-79
2022/08/30 06:45:21;;;;;;;11.45;5.20;;;21.60;99.90;;;;;;5016961;28;20036;-77
2022/08/30 06:47:47;;;;;;;12.68;4.88;;;21.70;99.90;;;;;;5016980;28;20034;-79
2022/08/30 06:50:15;;;;;;;12.27;4.60;;;21.80;99.90;;;;;;5021290;28;20026;-79
2022/08/30 06:52:42;;;;;;;13.18;5.38;;;21.90;99.90;;;;;;5037336;28;20025;-79
2022/08/30 06:55:14;;;;;;;12.63;5.00;;;22.00;99.90;;;;;;5025608;28;20014;-79
2022/08/30 06:57:40;;;;;;;14.80;5.18;;;22.00;99.90;;;;;;4999407;28;20144;-79
2022/08/30 07:00:08;;;;;;;18.20;5.35;;;22.10;99.90;;;;;;5019192;28;20022;-79
2022/08/30 07:02:38;;;;;;;16.02;4.95;;;22.10;99.90;;;;;;5003372;28;20041;-79
2022/08/30 07:05:05;;;;;;;15.60;5.38;;;22.10;99.90;;;;;;5016645;28;20021;-79
2022/08/30 07:07:31;;;;;;;17.15;4.97;;;22.10;99.90;;;;;;5005172;28;20056;-79
2022/08/30 07:09:57;;;;;;;14.38;5.00;;;22.20;99.90;;;;;;5001962;28;20026;-78
2022/08/30 07:12:22;;;;;;;10.85;4.65;;;22.20;99.90;;;;;;5025735;28;20069;-80
2022/08/30 07:14:48;;;;;;;11.40;5.03;;;22.20;99.90;;;;;;5018755;28;20030;-79
2022/08/30 07:19:59;;;;;;;14.75;5.03;;;22.30;99.90;;;;;;5016556;28;20804;-78
2022/08/30 07:22:24;;;;;;;17.63;5.25;;;22.40;99.90;;;;;;5020596;28;20026;-78
2022/08/30 07:24:50;;;;;;;12.10;4.63;;;22.50;99.90;;;;;;5016421;28;20036;-79
2022/08/30 07:27:16;;;;;;;14.27;5.10;;;22.50;99.90;;;;;;5017117;28;20474;-79
2022/08/30 07:29:42;;;;;;;10.60;4.72;;;22.50;99.90;;;;;;5000837;28;20030;-79
2022/08/30 07:32:07;;;;;;;13.77;5.55;;;22.40;99.90;;;;;;5001439;28;20022;-80
2022/08/30 07:34:34;;;;;;;14.20;5.13;;;22.60;99.90;;;;;;5005949;28;20022;-79
2022/08/30 07:36:59;;;;;;;9.48;4.30;;;22.60;99.90;;;;;;5005142;28;20037;-79
2022/08/30 07:39:25;;;;;;;11.88;5.05;;;22.50;99.90;;;;;;5004699;28;20026;-79
2022/08/30 07:41:51;;;;;;;9.35;4.18;;;22.50;99.90;;;;;;5003464;28;20022;-79
2022/08/30 07:44:17;;;;;;;17.65;5.53;;;22.50;99.90;;;;;;4999001;28;20065;-80
2022/08/30 07:46:43;;;;;;;12.95;5.18;;;22.40;99.90;;;;;;4999315;28;20029;-78
2022/08/30 07:49:10;;;;;;;18.30;4.93;;;22.50;99.90;;;;;;5022682;28;20041;-77
2022/08/30 07:51:37;;;;;;;10.52;4.70;;;22.60;99.90;;;;;;5025310;28;20018;-78
2022/08/30 07:54:03;;;;;;;10.32;4.30;;;22.70;99.90;;;;;;5026158;28;20077;-78
2022/08/30 07:56:29;;;;;;;12.90;4.43;;;22.70;99.90;;;;;;5026141;28;20030;-78
2022/08/30 07:58:54;;;;;;;8.05;4.20;;;22.70;99.90;;;;;;5024907;28;20034;-79
2022/08/30 08:01:21;;;;;;;13.98;4.97;;;22.80;99.90;;;;;;4991730;28;20033;-78
2022/08/30 08:03:49;;;;;;;8.65;4.20;;;22.80;99.90;;;;;;5025456;28;20034;-78
2022/08/30 08:06:17;;;;;;;14.75;4.43;;;22.80;99.90;;;;;;5024354;28;20026;-78
2022/08/30 08:08:44;;;;;;;12.82;4.82;;;22.90;99.90;;;;;;5023781;28;20034;-78
2022/08/30 08:11:16;;;;;;;16.00;4.68;;;22.90;99.90;;;;;;5004233;28;20033;-79
2022/08/30 08:13:45;;;;;;;10.65;4.68;;;22.90;99.90;;;;;;5000525;28;20021;-79
2022/08/30 08:16:11;;;;;;;12.30;4.63;;;23.00;99.90;;;;;;5004894;28;20021;-80
2022/08/30 08:18:36;;;;;;;14.77;4.85;;;23.10;99.90;;;;;;5008900;28;20041;-79
2022/08/30 08:21:03;;;;;;;11.30;5.00;;;23.20;99.90;;;;;;5027286;23;20065;-88
2022/08/30 08:23:29;;;;;;;10.18;4.30;;;23.30;99.90;;;;;;5052738;28;20045;-85
2022/08/30 08:25:55;;;;;;;9.13;3.85;;;23.40;99.90;;;;;;5050812;28;20073;-88
2022/08/30 08:28:22;;;;;;;8.57;4.25;;;23.40;99.90;;;;;;5054014;28;20033;-83
2022/08/30 08:30:49;;;;;;;10.80;3.90;;;23.50;99.90;;;;;;5050812;28;20038;-86
2022/08/30 08:33:16;;;;;;;11.93;4.50;;;23.50;99.90;;;;;;5034211;28;20072;-85
2022/08/30 08:35:42;;;;;;;8.32;4.43;;;23.60;99.90;;;;;;5030765;28;20014;-85
2022/08/30 08:38:08;;;;;;;11.10;4.45;;;23.60;99.90;;;;;;5021512;28;20034;-83
2022/08/30 08:40:42;;;;;;;10.10;4.32;;;23.70;99.90;;;;;;5022532;28;20014;-85
2022/08/30 08:43:15;;;;;;;17.10;6.05;;;23.80;99.90;;;;;;5019709;28;20085;-88
2022/08/30 08:46:43;;;;;;;16.20;4.40;;;24.00;99.90;;;;;;5033001;28;20060;-88
2022/08/30 08:49:30;;;;;;;16.38;4.78;;;24.10;99.90;;;;;;5018890;28;20053;-86
2022/08/30 08:55:47;;;;;;;15.13;4.68;;;24.30;99.90;;;;;;5039877;28;20030;-87
2022/08/30 08:59:05;;;;;;;10.25;3.90;;;24.30;99.90;;;;;;4976555;28;20026;-87
2022/08/30 09:01:39;;;;;;;11.77;4.30;;;24.20;99.90;;;;;;5037752;28;20030;-88
2022/08/30 09:12:47;;;;;;;8.57;4.20;;;24.40;99.90;;;;;;4997881;28;20078;-85
2022/08/30 09:34:53;;;;;;;5.63;3.50;;;29.10;95.50;;;;;;4959832;28;20117;-87
2022/08/30 09:37:57;;;;;;;6.63;3.17;;;30.90;91.70;;;;;;4957276;28;20054;-88
2022/08/30 09:40:48;;;;;;;7.05;3.40;;;32.20;87.30;;;;;;4998993;28;20057;-85
2022/08/30 09:43:36;;;;;;;7.60;3.00;;;33.20;83.90;;;;;;5032290;28;20017;-86
2022/08/30 09:46:29;;;;;;;8.40;2.85;;;34.10;77.60;;;;;;5020352;28;20026;-85
2022/08/30 09:49:43;;;;;;;5.75;3.35;;;35.40;74.00;;;;;;5038822;28;20026;-86
2022/08/30 09:52:39;;;;;;;7.97;3.58;;;36.80;68.90;;;;;;5022418;28;20021;-86
2022/08/30 09:55:17;;;;;;;5.13;3.67;;;37.00;68.00;;;;;;5022101;28;20021;-87
2022/08/30 09:58:08;;;;;;;7.70;3.90;;;37.50;65.30;;;;;;5038325;28;20017;-88
2022/08/30 10:00:45;;;;;;;7.65;2.80;;;37.30;63.10;;;;;;5039358;28;20273;-86
2022/08/30 10:03:35;;;;;;;8.75;3.33;;;36.40;62.90;;;;;;5038699;28;20018;-88
2022/08/30 10:06:14;;;;;;;10.23;2.97;;;37.00;62.00;;;;;;5021125;28;20054;-87
2022/08/30 10:09:06;;;;;;;6.00;3.30;;;38.20;60.60;;;;;;5034815;28;20045;-89
2022/08/30 10:11:51;;;;;;;7.35;3.38;;;39.20;57.70;;;;;;5035017;28;20097;-88
2022/08/30 10:14:30;;;;;;;5.22;3.15;;;39.80;56.70;;;;;;5025909;28;20053;-88
2022/08/30 10:17:22;;;;;;;4.72;3.20;;;39.00;55.90;;;;;;5020924;28;20049;-89
2022/08/30 10:20:02;;;;;;;7.15;2.90;;;38.40;55.80;;;;;;5013768;28;20045;-89
2022/08/30 10:22:34;;;;;;;6.28;3.70;;;38.00;56.10;;;;;;5032816;28;20069;-89
2022/08/30 10:25:47;;;;;;;7.45;3.20;;;37.80;56.40;;;;;;5032870;28;20044;-88
2022/08/30 10:28:23;;;;;;;5.78;3.35;;;38.50;55.80;;;;;;5030085;28;20072;-87
2022/08/30 10:30:56;;;;;;;5.13;2.75;;;39.90;54.60;;;;;;5028505;28;20026;-88
2022/08/30 10:33:27;;;;;;;5.32;2.70;;;40.60;53.70;;;;;;5028372;28;20033;-88
2022/08/30 10:35:57;;;;;;;6.40;2.83;;;41.00;53.00;;;;;;5029656;28;20025;-89
2022/08/30 10:38:45;;;;;;;9.32;3.38;;;41.70;51.50;;;;;;5015461;28;20025;-88
2022/08/30 10:41:30;;;;;;;7.43;3.25;;;40.20;51.40;;;;;;5031787;28;20112;-88
2022/08/30 10:44:21;;;;;;;7.72;2.97;;;40.60;51.80;;;;;;5030022;28;20374;-89
2022/08/30 10:47:06;;;;;;;4.78;2.65;;;40.70;51.10;;;;;;5028328;28;20026;-89
2022/08/30 10:49:40;;;;;;;6.55;2.95;;;41.10;50.50;;;;;;5022987;28;20029;-89
2022/08/30 10:52:46;;;;;;;8.35;3.22;;;41.30;50.00;;;;;;5015603;28;20053;-88
2022/08/30 10:55:21;;;;;;;5.57;2.83;;;42.20;48.90;;;;;;5011221;28;20045;-86
2022/08/30 10:57:47;;;;;;;5.00;3.05;;;42.50;48.20;;;;;;5008169;28;20033;-87
2022/08/30 11:00:23;;;;;;;6.20;2.75;;;42.20;47.80;;;;;;5027212;28;20026;-89
2022/08/30 11:03:07;;;;;;;5.53;2.67;;;40.60;48.80;;;;;;5030014;28;20077;-85
2022/08/30 11:06:08;;;;;;;5.38;2.88;;;40.50;48.70;;;;;;5034745;28;20030;-87
2022/08/30 11:09:17;;;;;;;4.03;2.60;;;40.70;48.50;;;;;;5015498;28;20037;-87
2022/08/30 11:12:19;;;;;;;9.20;3.53;;;41.10;48.10;;;;;;4990254;28;20042;-89
2022/08/30 11:14:48;;;;;;;6.63;3.05;;;42.30;47.70;;;;;;5009383;28;20426;-87
2022/08/30 11:18:17;;;;;;;4.22;2.95;;;42.50;47.20;;;;;;5026830;28;20523;-87
2022/08/30 11:21:14;;;;;;;7.30;3.30;;;40.80;47.80;;;;;;4952527;28;20046;-89
2022/08/30 11:24:02;;;;;;;7.43;2.95;;;40.70;48.00;;;;;;4952760;28;20019;-86
2022/08/30 11:26:47;;;;;;;4.45;2.67;;;41.50;47.20;;;;;;5006926;28;20025;-87
2022/08/30 11:29:33;;;;;;;4.93;2.30;;;41.20;47.00;;;;;;5026045;28;20029;-85
2022/08/30 11:32:11;;;;;;;6.50;2.92;;;41.70;46.90;;;;;;5025296;28;20035;-87
2022/08/30 11:34:54;;;;;;;5.63;2.80;;;42.80;46.40;;;;;;5034303;28;20037;-85
2022/08/30 11:37:42;;;;;;;4.97;2.80;;;43.20;45.60;;;;;;5030464;28;20034;-86
2022/08/30 11:40:19;;;;;;;4.53;2.50;;;43.80;45.10;;;;;;5036834;28;20026;-87
2022/08/30 11:42:47;;;;;;;6.63;3.30;;;43.70;45.20;;;;;;5036169;28;20018;-86
2022/08/30 11:45:22;;;;;;;7.68;3.90;;;43.40;45.40;;;;;;5028605;28;20026;-87
2022/08/30 11:48:00;;;;;;;9.00;3.17;;;42.90;45.40;;;;;;5027343;28;20034;-86
2022/08/30 11:50:25;;;;;;;6.13;2.90;;;42.10;45.70;;;;;;5006751;28;20038;-87
2022/08/30 11:53:05;;;;;;;6.25;3.17;;;42.60;45.40;;;;;;4988084;28;20137;-88
2022/08/30 11:55:39;;;;;;;5.88;2.97;;;42.90;45.20;;;;;;5005476;28;20038;-86
2022/08/30 11:58:05;;;;;;;4.55;2.78;;;42.70;45.30;;;;;;4996498;28;20038;-86
2022/08/30 12:00:40;;;;;;;5.75;2.85;;;42.80;45.10;;;;;;4995863;28;20033;-86
2022/08/30 12:03:28;;;;;;;4.82;2.92;;;42.60;44.90;;;;;;5009964;28;20031;-86
2022/08/30 12:05:58;;;;;;;4.70;2.83;;;42.90;45.00;;;;;;4996818;28;20494;-86
2022/08/30 12:08:27;;;;;;;6.57;3.10;;;43.00;45.00;;;;;;5014537;28;20096;-87
2022/08/30 12:11:15;;;;;;;6.05;2.95;;;42.90;44.90;;;;;;5014695;28;20030;-86
2022/08/30 12:13:43;;;;;;;4.03;2.80;;;43.10;45.00;;;;;;4987959;28;20041;-85
2022/08/30 12:16:12;;;;;;;5.38;2.95;;;42.90;44.30;;;;;;5016955;28;20078;-85
2022/08/30 12:18:44;;;;;;;8.38;3.22;;;41.20;45.50;;;;;;5016448;28;20034;-84
2022/08/30 12:21:19;;;;;;;5.10;3.00;;;40.70;46.30;;;;;;5000549;28;20027;-87
2022/08/30 12:24:15;;;;;;;7.53;2.80;;;41.70;45.80;;;;;;5015226;28;20034;-85
2022/08/30 12:26:43;;;;;;;5.57;2.67;;;42.10;45.20;;;;;;5014396;28;20042;-86
2022/08/30 12:29:17;;;;;;;4.90;2.78;;;42.50;45.10;;;;;;5018333;28;20027;-88
2022/08/30 12:31:52;;;;;;;3.85;2.72;;;43.00;44.70;;;;;;5017618;28;20266;-87
2022/08/30 12:34:32;;;;;;;5.88;2.58;;;42.70;44.60;;;;;;5018732;28;20041;-87
2022/08/30 12:37:18;;;;;;;5.63;3.00;;;43.10;44.30;;;;;;5018072;28;20122;-86
2022/08/30 12:39:45;;;;;;;6.63;2.83;;;43.10;44.20;;;;;;5018484;28;20110;-85
2022/08/30 12:42:25;;;;;;;6.30;2.85;;;43.30;43.90;;;;;;5015712;28;20033;-87
2022/08/30 12:44:55;;;;;;;7.45;3.08;;;43.50;44.00;;;;;;5013969;28;20038;-87
2022/08/30 12:47:32;;;;;;;7.13;2.60;;;44.60;43.40;;;;;;5010973;28;20026;-87
2022/08/30 12:50:06;;;;;;;5.10;2.42;;;44.20;43.20;;;;;;5024765;28;20030;-88
2022/08/30 12:52:39;;;;;;;4.40;2.90;;;44.40;42.80;;;;;;5029488;28;20053;-88
2022/08/30 12:55:18;;;;;;;5.30;2.95;;;44.20;42.60;;;;;;5030974;28;20092;-87
2022/08/30 12:57:57;;;;;;;5.18;2.70;;;43.50;42.60;;;;;;5012688;28;20034;-87
2022/08/30 13:00:40;;;;;;;5.13;2.60;;;43.90;42.40;;;;;;5015741;28;20037;-88
2022/08/30 13:03:32;;;;;;;9.73;3.08;;;45.00;42.40;;;;;;5026412;28;20040;-87
2022/08/30 13:05:58;;;;;;;5.68;2.35;;;44.80;41.30;;;;;;5030291;28;20030;-87
2022/08/30 13:08:49;;;;;;;4.28;2.50;;;44.30;41.70;;;;;;5023064;28;20410;-88
2022/08/30 13:11:21;;;;;;;6.68;2.85;;;44.30;41.70;;;;;;5029508;28;20046;-86
2022/08/30 13:13:51;;;;;;;4.78;2.97;;;43.80;41.70;;;;;;5031547;28;20419;-87
2022/08/30 13:16:20;;;;;;;5.57;2.70;;;44.00;41.80;;;;;;5013900;28;20030;-88
2022/08/30 13:18:52;;;;;;;6.45;3.00;;;43.90;41.70;;;;;;5016362;28;20030;-87
2022/08/30 13:21:26;;;;;;;3.00;2.47;;;43.90;41.60;;;;;;5017913;28;20045;-85
2022/08/30 13:24:02;;;;;;;8.02;3.50;;;44.30;41.20;;;;;;5028605;28;20045;-87
2022/08/30 13:26:30;;;;;;;6.10;2.97;;;43.70;41.80;;;;;;5037384;28;20089;-85
2022/08/30 13:28:59;;;;;;;5.45;3.45;;;44.30;41.70;;;;;;5038946;28;20037;-84
2022/08/30 13:31:29;;;;;;;10.60;3.03;;;44.60;41.70;;;;;;5038389;28;20065;-84
2022/08/30 13:33:55;;;;;;;5.40;2.72;;;45.00;40.90;;;;;;5037891;28;20128;-86
2022/08/30 13:36:29;;;;;;;5.75;2.70;;;45.20;40.70;;;;;;5037454;28;20037;-83
2022/08/30 13:38:56;;;;;;;6.80;3.00;;;44.20;40.90;;;;;;5036336;28;20030;-85